createdAt,value
2019-06-10T00:00:42.308Z,16.2
2019-06-10T00:01:51.835Z,16.1
2019-06-10T00:03:02.781Z,16.1
2019-06-10T00:04:13.530Z,16.1
2019-06-10T00:05:22.186Z,16.1
2019-06-10T00:06:31.524Z,16
2019-06-10T00:07:40.936Z,16
2019-06-10T00:08:50.224Z,16
2019-06-10T00:10:02.779Z,16
2019-06-10T00:11:13.785Z,16
2019-06-10T00:12:21.582Z,16
2019-06-10T00:13:31.230Z,16
2019-06-10T00:14:38.800Z,16
2019-06-10T00:15:48.560Z,16.1
2019-06-10T00:17:01.505Z,16.1
2019-06-10T00:18:41.989Z,16.1
2019-06-10T00:19:52.629Z,16
2019-06-10T00:21:04.843Z,16.1
2019-06-10T00:22:14.613Z,16
2019-06-10T00:23:21.939Z,16
2019-06-10T00:24:31.975Z,16
2019-06-10T00:25:42.170Z,16
2019-06-10T00:26:51.671Z,16
2019-06-10T00:28:00.388Z,16
2019-06-10T00:29:13.627Z,16
2019-06-10T00:30:21.418Z,16
2019-06-10T00:31:31.075Z,16
2019-06-10T00:32:41.025Z,16
2019-06-10T00:33:48.327Z,16
2019-06-10T00:34:55.275Z,16
2019-06-10T00:36:09.360Z,16
2019-06-10T00:37:21.756Z,16
2019-06-10T00:38:28.988Z,16
2019-06-10T00:39:40.719Z,16
2019-06-10T00:40:48.058Z,16
2019-06-10T00:41:57.790Z,16
2019-06-10T00:43:14.124Z,16
2019-06-10T00:44:21.339Z,16
2019-06-10T00:45:28.553Z,16
2019-06-10T00:46:38.266Z,16
2019-06-10T00:47:47.603Z,15.9
2019-06-10T00:48:58.283Z,15.9
2019-06-10T00:50:14.922Z,15.9
2019-06-10T00:51:22.121Z,15.8
2019-06-10T00:52:31.290Z,15.8
2019-06-10T00:53:37.954Z,15.8
2019-06-10T00:54:44.935Z,15.7
2019-06-10T00:55:52.254Z,15.7
2019-06-10T00:57:03.998Z,15.8
2019-06-10T00:58:14.670Z,15.8
2019-06-10T00:59:22.412Z,15.8
2019-06-10T01:00:31.613Z,15.8
2019-06-10T01:01:41.371Z,15.8
2019-06-10T01:02:51.614Z,15.8
2019-06-10T01:04:01.366Z,15.8
2019-06-10T01:05:15.895Z,15.8
2019-06-10T01:06:23.135Z,15.7
2019-06-10T01:07:31.660Z,15.7
2019-06-10T01:08:41.062Z,15.7
2019-06-10T01:09:48.005Z,15.7
2019-06-10T01:10:54.976Z,15.6
2019-06-10T01:12:03.318Z,15.6
2019-06-10T01:13:15.507Z,15.6
2019-06-10T01:14:22.758Z,15.6
2019-06-10T01:15:31.647Z,15.6
2019-06-10T01:16:41.017Z,15.6
2019-06-10T01:17:48.322Z,15.5
2019-06-10T01:18:57.829Z,15.5
2019-06-10T01:20:08.373Z,15.5
2019-06-10T01:21:22.525Z,15.5
2019-06-10T01:22:32.068Z,15.5
2019-06-10T01:23:41.493Z,15.4
2019-06-10T01:24:50.966Z,15.4
2019-06-10T01:25:58.319Z,15.4
2019-06-10T01:27:10.700Z,15.4
2019-06-10T01:28:22.646Z,15.4
2019-06-10T01:29:31.283Z,15.4
2019-06-10T01:30:38.319Z,15.3
2019-06-10T01:31:47.908Z,15.3
2019-06-10T01:32:57.460Z,15.2
2019-06-10T01:34:05.350Z,15.3
2019-06-10T01:35:17.411Z,15.2
2019-06-10T01:36:24.683Z,15.2
2019-06-10T01:37:31.684Z,15.2
2019-06-10T01:38:40.805Z,15.2
2019-06-10T01:39:48.122Z,15.1
2019-06-10T01:40:55.066Z,15.1
2019-06-10T01:42:02.282Z,15
2019-06-10T01:43:16.505Z,15.1
2019-06-10T01:44:27.605Z,15.1
2019-06-10T01:45:37.687Z,15
2019-06-10T01:46:44.934Z,15
2019-06-10T01:47:52.179Z,14.9
2019-06-10T01:49:01.291Z,15
2019-06-10T01:50:15.305Z,14.9
2019-06-10T01:51:27.996Z,14.9
2019-06-10T01:52:35.223Z,14.9
2019-06-10T01:53:42.450Z,14.8
2019-06-10T01:54:51.982Z,14.8
2019-06-10T01:56:01.450Z,14.8
2019-06-10T01:57:10.931Z,14.8
2019-06-10T01:58:24.194Z,14.8
2019-06-10T01:59:31.520Z,14.8
2019-06-10T02:00:38.486Z,14.7
2019-06-10T02:01:48.277Z,14.8
2019-06-10T02:02:58.007Z,14.8
2019-06-10T02:04:04.976Z,14.7
2019-06-10T02:05:16.622Z,14.7
2019-06-10T02:06:32.063Z,14.7
2019-06-10T02:07:41.455Z,14.7
2019-06-10T02:08:51.461Z,14.7
2019-06-10T02:10:00.938Z,14.7
2019-06-10T02:11:12.281Z,14.7
2019-06-10T02:12:31.924Z,14.7
2019-06-10T02:13:40.815Z,14.6
2019-06-10T02:14:48.124Z,14.6
2019-06-10T02:15:57.367Z,14.6
2019-06-10T02:17:06.954Z,14.6
2019-06-10T02:18:16.596Z,14.6
2019-06-10T02:19:24.499Z,14.6
2019-06-10T02:20:32.315Z,14.6
2019-06-10T02:21:41.565Z,14.6
2019-06-10T02:22:51.414Z,14.6
2019-06-10T02:24:01.465Z,14.6
2019-06-10T02:25:12.496Z,14.6
2019-06-10T02:26:24.193Z,14.6
2019-06-10T02:27:32.040Z,14.6
2019-06-10T02:28:41.200Z,14.6
2019-06-10T02:29:50.583Z,14.6
2019-06-10T02:30:57.908Z,14.6
2019-06-10T02:32:24.509Z,14.6
2019-06-10T02:33:44.709Z,14.6
2019-06-10T02:35:15.325Z,14.5
2019-06-10T02:36:54.292Z,14.5
2019-06-10T02:38:03.996Z,14.5
2019-06-10T02:39:22.242Z,14.5
2019-06-10T02:40:45.295Z,14.6
2019-06-10T02:41:54.151Z,14.6
2019-06-10T02:43:04.164Z,14.6
2019-06-10T02:44:21.511Z,14.6
2019-06-10T02:45:45.194Z,14.6
2019-06-10T02:46:55.053Z,14.6
2019-06-10T02:48:04.791Z,14.6
2019-06-10T02:49:47.855Z,14.6
2019-06-10T02:51:20.338Z,14.6
2019-06-10T02:52:44.813Z,14.6
2019-06-10T02:53:54.374Z,14.6
2019-06-10T02:55:04.883Z,14.6
2019-06-10T02:56:14.752Z,14.6
2019-06-10T02:57:40.181Z,14.6
2019-06-10T02:58:54.016Z,14.6
2019-06-10T03:00:20.496Z,14.6
2019-06-10T03:01:54.319Z,14.6
2019-06-10T03:03:04.283Z,14.6
2019-06-10T03:04:16.182Z,14.7
2019-06-10T03:05:46.432Z,14.7
2019-06-10T03:06:54.895Z,14.7
2019-06-10T03:08:04.495Z,14.7
2019-06-10T03:09:16.403Z,14.6
2019-06-10T03:10:37.034Z,14.7
2019-06-10T03:11:45.367Z,14.6
2019-06-10T03:12:53.060Z,14.6
2019-06-10T03:14:02.477Z,14.6
2019-06-10T03:15:09.841Z,14.6
2019-06-10T03:16:25.408Z,14.6
2019-06-10T03:17:32.909Z,14.6
2019-06-10T03:18:40.121Z,14.6
2019-06-10T03:19:53.639Z,14.5
2019-06-10T03:21:03.219Z,14.5
2019-06-10T03:22:10.160Z,14.6
2019-06-10T03:23:22.699Z,14.5
2019-06-10T03:24:34.291Z,14.5
2019-06-10T03:25:42.775Z,14.6
2019-06-10T03:26:52.047Z,14.5
2019-06-10T03:27:59.424Z,14.5
2019-06-10T03:29:06.380Z,14.6
2019-06-10T03:30:25.997Z,14.6
2019-06-10T03:32:05.909Z,14.6
2019-06-10T03:33:14.331Z,14.6
2019-06-10T03:34:40.417Z,14.6
2019-06-10T03:35:54.394Z,14.6
2019-06-10T03:37:02.969Z,14.6
2019-06-10T03:38:12.245Z,14.5
2019-06-10T03:39:20.625Z,14.5
2019-06-10T03:40:34.650Z,14.5
2019-06-10T03:41:42.893Z,14.5
2019-06-10T03:42:52.501Z,14.5
2019-06-10T03:43:59.429Z,14.5
2019-06-10T03:45:08.988Z,14.5
2019-06-10T03:46:19.552Z,14.5
2019-06-10T03:47:33.050Z,14.5
2019-06-10T03:48:39.986Z,14.5
2019-06-10T03:49:56.160Z,14.5
2019-06-10T03:51:04.052Z,14.5
2019-06-10T03:52:13.390Z,14.5
2019-06-10T03:53:24.326Z,14.5
2019-06-10T03:54:35.038Z,14.4
2019-06-10T03:55:42.917Z,14.4
2019-06-10T03:56:52.528Z,14.4
2019-06-10T03:58:02.052Z,14.4
2019-06-10T03:59:09.402Z,14.4
2019-06-10T04:00:21.340Z,14.5
2019-06-10T04:01:35.066Z,14.5
2019-06-10T04:02:43.587Z,14.5
2019-06-10T04:03:53.369Z,14.6
2019-06-10T04:05:03.159Z,14.6
2019-06-10T04:06:12.658Z,14.6
2019-06-10T04:07:28.094Z,14.5
2019-06-10T04:08:43.069Z,14.5
2019-06-10T04:09:52.490Z,14.5
2019-06-10T04:10:59.821Z,14.5
2019-06-10T04:12:09.553Z,14.6
2019-06-10T04:13:19.692Z,14.6
2019-06-10T04:14:33.259Z,14.6
2019-06-10T04:15:42.865Z,14.6
2019-06-10T04:16:52.380Z,14.6
2019-06-10T04:17:59.751Z,14.7
2019-06-10T04:19:10.262Z,14.7
2019-06-10T04:20:22.999Z,14.7
2019-06-10T04:21:35.768Z,14.7
2019-06-10T04:22:45.030Z,14.6
2019-06-10T04:23:53.373Z,14.7
2019-06-10T04:25:03.466Z,14.7
2019-06-10T04:26:13.166Z,14.7
2019-06-10T04:27:25.238Z,14.8
2019-06-10T04:28:34.797Z,14.8
2019-06-10T04:29:42.731Z,14.8
2019-06-10T04:30:49.958Z,14.9
2019-06-10T04:31:56.651Z,14.9
2019-06-10T04:33:03.887Z,14.9
2019-06-10T04:34:13.049Z,14.9
2019-06-10T04:35:25.813Z,14.9
2019-06-10T04:36:35.570Z,14.9
2019-06-10T04:37:43.373Z,15
2019-06-10T04:38:52.918Z,15
2019-06-10T04:40:02.611Z,15
2019-06-10T04:41:12.387Z,15.1
2019-06-10T04:42:23.118Z,15.1
2019-06-10T04:43:35.124Z,15.2
2019-06-10T04:44:42.876Z,15.2
2019-06-10T04:45:50.088Z,15.2
2019-06-10T04:46:59.700Z,15.3
2019-06-10T04:48:09.490Z,15.3
2019-06-10T04:49:19.235Z,15.3
2019-06-10T04:50:46.130Z,15.4
2019-06-10T04:51:53.541Z,15.4
2019-06-10T04:53:02.823Z,15.5
2019-06-10T04:54:10.027Z,15.4
2019-06-10T04:55:21.061Z,15.5
2019-06-10T04:56:34.951Z,15.6
2019-06-10T04:57:43.670Z,15.6
2019-06-10T04:58:53.111Z,15.7
2019-06-10T05:00:02.534Z,15.7
2019-06-10T05:01:25.818Z,15.7
2019-06-10T05:02:36.572Z,15.8
2019-06-10T05:03:44.027Z,15.8
2019-06-10T05:04:53.682Z,15.9
2019-06-10T05:06:02.999Z,15.9
2019-06-10T05:07:12.213Z,16
2019-06-10T05:08:19.483Z,16
2019-06-10T05:09:33.818Z,16
2019-06-10T05:10:42.958Z,16
2019-06-10T05:11:52.382Z,16
2019-06-10T05:12:58.776Z,16
2019-06-10T05:14:05.986Z,16
2019-06-10T05:15:13.165Z,16
2019-06-10T05:16:23.334Z,16.1
2019-06-10T05:17:44.042Z,16.1
2019-06-10T05:18:55.031Z,16.1
2019-06-10T05:20:03.160Z,16.2
2019-06-10T05:21:12.596Z,16.2
2019-06-10T05:22:22.671Z,16.3
2019-06-10T22:00:14.009Z,15.3
2019-06-10T22:01:23.011Z,15.3
2019-06-10T22:02:32.839Z,15.4
2019-06-10T22:03:40.053Z,15.4
2019-06-10T22:04:55.539Z,15.4
2019-06-10T22:06:02.829Z,15.3
2019-06-10T22:07:10.046Z,15.3
2019-06-10T22:08:17.257Z,15.3
2019-06-10T22:09:24.189Z,15.3
2019-06-10T22:10:33.982Z,15.3
2019-06-10T22:11:43.807Z,15.3
2019-06-10T22:12:55.714Z,15.2
2019-06-10T22:14:03.414Z,15.2
2019-06-10T22:15:12.868Z,15.2
2019-06-10T22:16:19.821Z,15.1
2019-06-10T22:17:29.321Z,15.1
2019-06-10T22:18:36.541Z,15.2
2019-06-10T22:19:44.968Z,15.1
2019-06-10T22:20:57.833Z,15.1
2019-06-10T22:22:04.770Z,15.2
2019-06-10T22:23:13.430Z,15.1
2019-06-10T22:24:22.781Z,15.1
2019-06-10T22:25:30.125Z,15.1
2019-06-10T22:26:39.538Z,15.2
2019-06-10T22:27:50.493Z,15.2
2019-06-10T22:28:58.781Z,15.2
2019-06-10T22:30:11.988Z,15.2
2019-06-10T22:31:26.321Z,15.2
2019-06-10T22:32:33.731Z,15.2
2019-06-10T22:33:42.992Z,15.2
2019-06-10T22:34:57.068Z,15.3
2019-06-10T22:36:04.370Z,15.3
2019-06-10T22:37:13.030Z,15.3
2019-06-10T22:38:22.665Z,15.3
2019-06-10T22:39:29.881Z,15.3
2019-06-10T22:40:39.281Z,15.3
2019-06-10T22:41:49.507Z,15.3
2019-06-10T22:43:02.806Z,15.2
2019-06-10T22:44:13.242Z,15.2
2019-06-10T22:45:20.172Z,15.2
2019-06-10T22:46:27.385Z,15.2
2019-06-10T22:47:34.330Z,15.2
2019-06-10T22:48:43.043Z,15.3
2019-06-10T22:49:50.524Z,15.3
2019-06-10T22:51:04.379Z,15.3
2019-06-10T22:52:13.194Z,15.3
2019-06-10T22:53:22.961Z,15.3
2019-06-10T22:54:32.641Z,15.3
2019-06-10T22:55:39.866Z,15.3
2019-06-10T22:56:49.937Z,15.3
2019-06-10T22:58:06.831Z,15.4
2019-06-10T22:59:14.053Z,15.4
2019-06-10T23:00:22.867Z,15.4
2019-06-10T23:01:38.602Z,15.5
2019-06-10T23:02:49.789Z,15.5
2019-06-10T23:04:13.250Z,15.5
2019-06-10T23:05:23.647Z,15.5
2019-06-10T23:06:30.891Z,15.5
2019-06-10T23:07:40.629Z,15.5
2019-06-10T23:08:53.311Z,15.5
2019-06-10T23:10:05.689Z,15.5
2019-06-10T23:11:13.533Z,15.5
2019-06-10T23:12:20.754Z,15.5
2019-06-10T23:13:27.695Z,15.5
2019-06-10T23:14:34.916Z,15.5
2019-06-10T23:15:43.552Z,15.4
2019-06-10T23:16:55.594Z,15.5
2019-06-10T23:18:09.322Z,15.5
2019-06-10T23:19:19.396Z,15.5
2019-06-10T23:20:26.627Z,15.5
2019-06-10T23:21:33.865Z,15.5
2019-06-10T23:22:40.806Z,15.5
2019-06-10T23:23:47.467Z,15.5
2019-06-10T23:24:56.215Z,15.5
2019-06-10T23:26:04.513Z,15.6
2019-06-10T23:27:13.400Z,15.5
2019-06-10T23:28:22.772Z,15.6
2019-06-10T23:29:32.081Z,15.5
2019-06-10T23:30:39.459Z,15.5
2019-06-10T23:32:01.461Z,15.5
2019-06-10T23:33:13.837Z,15.5
2019-06-10T23:34:23.771Z,15.5
2019-06-10T23:35:32.869Z,15.5
2019-06-10T23:36:39.828Z,15.5
2019-06-10T23:37:53.703Z,15.5
2019-06-10T23:39:13.049Z,15.5
2019-06-10T23:40:20.110Z,15.5
2019-06-10T23:41:29.985Z,15.5
2019-06-10T23:42:39.587Z,15.5
2019-06-10T23:43:46.525Z,15.5
2019-06-10T23:44:53.466Z,15.4
2019-06-10T23:46:04.753Z,15.5
2019-06-10T23:47:13.286Z,15.5
2019-06-10T23:48:22.949Z,15.5
2019-06-10T23:49:32.728Z,15.5
2019-06-10T23:50:39.941Z,15.5
2019-06-10T23:51:49.872Z,15.5
2019-06-10T23:53:07.662Z,15.5
2019-06-10T23:54:15.180Z,15.5
2019-06-10T23:55:23.373Z,15.5
2019-06-10T23:56:33.066Z,15.5
2019-06-10T23:57:41.827Z,15.5
2019-06-10T23:58:49.327Z,15.5
2019-06-10T23:59:59.049Z,15.5
